createdAt,value
2023-03-12T00:01:01.625Z,67.63
2023-03-12T00:02:03.972Z,67.46
2023-03-12T00:03:07.960Z,67.54
2023-03-12T00:04:10.489Z,67.59
2023-03-12T00:05:14.071Z,67.42
2023-03-12T00:06:17.000Z,67.33
2023-03-12T00:07:20.399Z,67.32
2023-03-12T00:08:22.966Z,67.48
2023-03-12T00:09:26.329Z,67.27
2023-03-12T00:10:30.275Z,67.58
2023-03-12T00:11:32.530Z,67.33
2023-03-12T00:12:37.604Z,67.21
2023-03-12T00:13:40.605Z,67.26
2023-03-12T00:14:44.043Z,66.80
2023-03-12T00:15:46.685Z,66.68
2023-03-12T00:16:50.680Z,66.47
2023-03-12T00:17:53.530Z,66.68
2023-03-12T00:18:57.480Z,66.56
2023-03-12T00:19:59.874Z,66.93
2023-03-12T00:21:03.278Z,67.26
2023-03-12T00:22:05.733Z,67.16
2023-03-12T00:23:09.458Z,67.48
2023-03-12T00:24:11.893Z,67.50
2023-03-12T00:25:17.421Z,67.69
2023-03-12T00:26:21.069Z,67.29
2023-03-12T00:27:25.576Z,67.14
2023-03-12T00:28:29.688Z,67.44
2023-03-12T00:29:33.559Z,67.35
2023-03-12T00:30:36.202Z,67.39
2023-03-12T00:31:39.784Z,67.63
2023-03-12T00:32:42.264Z,67.77
2023-03-12T00:33:45.733Z,67.85
2023-03-12T00:34:52.670Z,67.87
2023-03-12T00:35:57.187Z,67.82
2023-03-12T00:37:01.119Z,67.74
2023-03-12T00:38:03.618Z,67.73
2023-03-12T00:39:07.671Z,67.85
2023-03-12T00:40:11.657Z,68.17
2023-03-12T00:41:15.380Z,67.83
2023-03-12T00:42:17.926Z,67.78
2023-03-12T00:43:21.311Z,67.48
2023-03-12T00:44:26.576Z,67.20
2023-03-12T00:45:29.603Z,67.97
2023-03-12T00:46:33.280Z,67.79
2023-03-12T00:47:41.426Z,68.32
2023-03-12T00:48:45.406Z,68.42
2023-03-12T00:49:48.840Z,68.23
2023-03-12T00:50:52.980Z,67.67
2023-03-12T00:51:56.530Z,67.84
2023-03-12T00:52:59.865Z,68.06
2023-03-12T00:54:02.735Z,68.41
2023-03-12T00:55:06.768Z,68.61
2023-03-12T00:56:09.960Z,68.73
2023-03-12T00:57:13.577Z,68.46
2023-03-12T00:58:16.235Z,68.07
2023-03-12T00:59:19.803Z,68.46
2023-03-12T01:00:23.700Z,68.27
2023-03-12T01:01:27.785Z,68.00
2023-03-12T01:02:30.124Z,67.77
2023-03-12T01:03:33.986Z,67.65
2023-03-12T01:04:36.418Z,67.58
2023-03-12T01:05:40.952Z,67.59
2023-03-12T01:06:43.726Z,68.27
2023-03-12T01:07:47.199Z,68.19
2023-03-12T01:08:49.592Z,68.52
2023-03-12T01:09:52.795Z,68.43
2023-03-12T01:10:55.365Z,68.82
2023-03-12T01:11:59.268Z,69.06
2023-03-12T01:13:01.637Z,69.16
2023-03-12T01:14:06.799Z,68.80
2023-03-12T01:15:10.741Z,68.79
2023-03-12T01:16:16.231Z,68.86
2023-03-12T01:17:18.686Z,68.25
2023-03-12T01:18:22.780Z,68.46
2023-03-12T01:19:24.971Z,68.95
2023-03-12T01:20:28.500Z,69.22
2023-03-12T01:21:31.547Z,69.32
2023-03-12T01:22:35.788Z,69.13
2023-03-12T01:23:38.628Z,69.20
2023-03-12T01:24:42.134Z,69.34
2023-03-12T01:25:44.401Z,69.00
2023-03-12T01:26:47.688Z,68.64
2023-03-12T01:27:51.064Z,68.78
2023-03-12T01:28:54.750Z,69.27
2023-03-12T01:29:57.228Z,69.85
2023-03-12T01:31:06.975Z,69.95
2023-03-12T01:32:11.312Z,70.03
2023-03-12T01:33:16.772Z,69.87
2023-03-12T01:34:19.339Z,69.96
2023-03-12T01:35:22.871Z,69.31
2023-03-12T01:36:27.370Z,69.37
2023-03-12T01:37:31.017Z,69.86
2023-03-12T01:38:33.266Z,70.14
2023-03-12T01:39:36.834Z,70.49
2023-03-12T01:40:40.061Z,71.02
2023-03-12T01:41:43.648Z,70.65
2023-03-12T01:42:52.905Z,70.28
2023-03-12T01:43:56.885Z,69.81
2023-03-12T01:45:01.445Z,69.96
2023-03-12T01:46:25.096Z,69.99
2023-03-12T01:47:32.110Z,70.14
2023-03-12T01:48:38.642Z,70.35
2023-03-12T01:49:42.275Z,70.11
2023-03-12T01:50:44.812Z,69.54
2023-03-12T01:51:52.812Z,69.56
2023-03-12T01:52:55.389Z,69.57
2023-03-12T01:54:03.574Z,70.23
2023-03-12T01:55:14.176Z,69.64
2023-03-12T01:56:19.593Z,69.39
2023-03-12T01:57:26.451Z,69.52
2023-03-12T01:58:33.471Z,70.22
2023-03-12T01:59:43.550Z,70.15
2023-03-12T02:00:46.761Z,70.10
2023-03-12T02:02:00.154Z,70.19
2023-03-12T02:03:06.870Z,70.65
2023-03-12T02:04:10.337Z,70.79
2023-03-12T02:05:19.820Z,70.29
2023-03-12T02:06:30.395Z,69.66
2023-03-12T02:07:35.796Z,69.56
2023-03-12T02:08:41.793Z,69.56
2023-03-12T02:09:48.747Z,69.37
2023-03-12T02:10:51.623Z,69.21
2023-03-12T02:11:54.990Z,68.99
2023-03-12T02:12:57.347Z,68.61
2023-03-12T02:14:01.151Z,68.88
2023-03-12T02:15:05.584Z,69.52
2023-03-12T02:16:09.164Z,70.08
2023-03-12T02:17:13.474Z,70.52
2023-03-12T02:18:19.255Z,70.52
2023-03-12T02:19:28.866Z,70.67
2023-03-12T02:20:37.649Z,70.12
2023-03-12T02:21:41.142Z,70.11
2023-03-12T02:22:49.392Z,69.50
2023-03-12T02:23:59.039Z,69.13
2023-03-12T02:25:06.540Z,69.36
2023-03-12T02:26:13.737Z,69.17
2023-03-12T02:27:18.048Z,68.80
2023-03-12T02:28:24.449Z,68.87
2023-03-12T02:29:28.928Z,70.33
2023-03-12T02:30:33.456Z,69.68
2023-03-12T02:31:41.406Z,69.19
2023-03-12T02:32:47.946Z,69.58
2023-03-12T02:33:50.420Z,69.97
2023-03-12T02:34:53.726Z,70.14
2023-03-12T02:35:56.798Z,70.19
2023-03-12T02:37:00.400Z,70.58
2023-03-12T02:38:03.151Z,70.47
2023-03-12T02:39:07.034Z,70.52
2023-03-12T02:40:17.522Z,70.17
2023-03-12T02:41:24.492Z,70.55
2023-03-12T02:42:27.699Z,69.93
2023-03-12T02:43:31.426Z,69.88
2023-03-12T02:44:36.654Z,69.87
2023-03-12T02:45:39.727Z,69.42
2023-03-12T02:46:46.029Z,69.68
2023-03-12T02:47:48.483Z,69.28
2023-03-12T02:48:52.849Z,69.50
2023-03-12T02:49:55.199Z,69.29
2023-03-12T02:50:59.363Z,69.02
2023-03-12T02:52:03.653Z,69.15
2023-03-12T02:53:05.944Z,68.78
2023-03-12T02:54:10.011Z,68.90
2023-03-12T02:55:12.834Z,69.12
2023-03-12T02:56:17.403Z,70.61
2023-03-12T02:57:21.501Z,70.65
2023-03-12T02:58:24.771Z,70.17
2023-03-12T02:59:28.270Z,69.85
2023-03-12T03:00:32.340Z,70.16
2023-03-12T03:01:35.734Z,69.54
2023-03-12T03:02:38.481Z,69.92
2023-03-12T03:03:41.838Z,70.27
2023-03-12T03:04:44.199Z,70.93
2023-03-12T03:05:47.677Z,70.75
2023-03-12T03:06:50.369Z,70.67
2023-03-12T03:07:53.791Z,71.09
2023-03-12T03:08:56.198Z,71.22
2023-03-12T03:10:04.103Z,70.83
2023-03-12T03:11:06.993Z,70.91
2023-03-12T03:12:10.788Z,70.87
2023-03-12T03:13:14.833Z,70.93
2023-03-12T03:14:18.468Z,70.94
2023-03-12T03:15:20.830Z,71.46
2023-03-12T03:16:25.482Z,71.71
2023-03-12T03:17:28.183Z,71.22
2023-03-12T03:18:33.358Z,71.25
2023-03-12T03:19:36.144Z,71.16
2023-03-12T03:20:39.582Z,70.89
2023-03-12T03:21:41.921Z,71.09
2023-03-12T03:22:45.610Z,71.24
2023-03-12T03:23:50.069Z,71.64
2023-03-12T03:24:55.433Z,71.96
2023-03-12T03:25:57.850Z,71.27
2023-03-12T03:27:01.173Z,71.39
2023-03-12T03:28:03.471Z,71.16
2023-03-12T03:29:10.104Z,70.68
2023-03-12T03:30:12.965Z,70.72
2023-03-12T03:31:16.813Z,71.03
2023-03-12T03:32:19.330Z,71.59
2023-03-12T03:33:22.959Z,71.67
2023-03-12T03:34:25.357Z,72.10
2023-03-12T03:35:28.657Z,72.49
2023-03-12T03:36:30.975Z,72.27
2023-03-12T03:37:34.545Z,71.95
2023-03-12T03:38:37.220Z,71.68
2023-03-12T03:39:40.587Z,71.12
2023-03-12T03:40:42.957Z,71.02
2023-03-12T03:41:47.432Z,70.37
2023-03-12T03:42:49.723Z,70.55
2023-03-12T03:43:53.145Z,70.97
2023-03-12T03:44:56.823Z,70.74
2023-03-12T03:46:00.702Z,71.95
2023-03-12T03:47:03.231Z,71.78
2023-03-12T03:48:07.359Z,71.72
2023-03-12T03:49:09.620Z,71.61
2023-03-12T03:50:13.642Z,72.14
2023-03-12T03:51:16.340Z,71.72
2023-03-12T03:52:21.347Z,71.82
2023-03-12T03:53:23.697Z,71.36
2023-03-12T03:54:27.056Z,71.00
2023-03-12T03:55:29.459Z,70.58
2023-03-12T03:56:32.835Z,70.64
2023-03-12T03:57:35.118Z,70.39
2023-03-12T03:58:39.208Z,70.64
2023-03-12T03:59:41.603Z,69.87
2023-03-12T04:00:47.549Z,69.85
2023-03-12T04:01:49.879Z,69.74
2023-03-12T04:02:53.204Z,69.34
2023-03-12T04:03:55.864Z,69.13
2023-03-12T04:05:00.030Z,68.59
2023-03-12T04:06:05.460Z,69.04
2023-03-12T04:07:08.859Z,69.70
2023-03-12T04:08:12.263Z,69.70
2023-03-12T04:09:15.580Z,68.96
2023-03-12T04:10:18.831Z,69.53
2023-03-12T04:11:23.415Z,69.50
2023-03-12T04:12:26.177Z,70.71
2023-03-12T04:13:29.798Z,70.77
2023-03-12T04:14:32.018Z,70.58
2023-03-12T04:15:35.317Z,70.89
2023-03-12T04:16:39.001Z,71.63
2023-03-12T04:17:42.436Z,71.23
2023-03-12T04:18:45.362Z,71.33
2023-03-12T04:19:48.824Z,71.62
2023-03-12T04:20:51.220Z,71.30
2023-03-12T04:21:54.566Z,71.48
2023-03-12T04:22:58.633Z,71.49
2023-03-12T04:24:02.330Z,71.65
2023-03-12T04:25:07.544Z,71.66
2023-03-12T04:26:11.359Z,72.18
2023-03-12T04:27:13.610Z,71.89
2023-03-12T04:28:17.055Z,71.71
2023-03-12T04:29:19.848Z,71.32
2023-03-12T04:30:23.160Z,70.79
2023-03-12T04:31:25.660Z,70.74
2023-03-12T04:32:30.586Z,70.98
2023-03-12T04:33:35.285Z,70.67
2023-03-12T04:34:38.715Z,71.38
2023-03-12T04:35:50.835Z,71.66
2023-03-12T04:36:54.160Z,71.41
2023-03-12T04:37:56.493Z,71.81
2023-03-12T04:38:59.787Z,71.74
2023-03-12T04:40:07.566Z,71.64
2023-03-12T04:41:14.124Z,71.54
2023-03-12T04:42:17.453Z,71.51
2023-03-12T04:43:21.156Z,71.08
2023-03-12T04:44:24.460Z,71.29
2023-03-12T04:45:27.840Z,71.24
2023-03-12T04:46:30.321Z,70.96
2023-03-12T04:47:35.433Z,71.94
2023-03-12T04:48:37.733Z,72.42
2023-03-12T04:49:41.183Z,72.68
2023-03-12T04:50:44.681Z,73.16
2023-03-12T04:51:47.981Z,73.17
2023-03-12T04:52:50.248Z,73.45
2023-03-12T04:53:53.739Z,73.15
2023-03-12T04:54:56.459Z,72.50
2023-03-12T04:55:59.976Z,72.25
2023-03-12T04:57:02.288Z,72.68
2023-03-12T04:58:05.720Z,72.37
2023-03-12T04:59:08.149Z,72.28
2023-03-12T05:00:13.410Z,72.17
2023-03-12T05:01:24.183Z,71.97
2023-03-12T05:02:27.661Z,72.17
2023-03-12T05:03:31.570Z,72.03
2023-03-12T05:04:35.382Z,71.92
2023-03-12T05:05:37.841Z,71.51
2023-03-12T05:06:41.157Z,71.69
2023-03-12T05:07:43.356Z,71.28
2023-03-12T05:08:46.798Z,71.75
2023-03-12T05:09:50.285Z,71.77
2023-03-12T05:10:52.626Z,71.73
2023-03-12T05:11:56.398Z,72.28
2023-03-12T05:12:59.008Z,72.19
2023-03-12T05:14:03.059Z,71.95
2023-03-12T05:15:06.004Z,71.79
2023-03-12T05:16:10.235Z,71.97
2023-03-12T05:17:12.487Z,71.57
2023-03-12T05:18:16.083Z,70.81
2023-03-12T05:19:19.960Z,71.98
2023-03-12T05:20:23.579Z,72.33
2023-03-12T05:21:25.944Z,72.51
2023-03-12T05:22:29.207Z,72.59
2023-03-12T05:23:31.563Z,72.13
2023-03-12T05:24:34.825Z,72.40
2023-03-12T05:25:40.152Z,72.70
2023-03-12T05:26:44.230Z,72.86
2023-03-12T05:27:47.563Z,72.79
2023-03-12T05:28:51.257Z,72.86
2023-03-12T05:29:53.967Z,73.96
2023-03-12T05:30:58.610Z,73.73
2023-03-12T05:32:01.128Z,73.62
2023-03-12T05:33:04.505Z,73.59
2023-03-12T05:34:07.187Z,73.03
2023-03-12T05:35:12.108Z,73.86
2023-03-12T05:36:14.937Z,73.54
2023-03-12T05:37:18.340Z,72.92
2023-03-12T05:38:20.736Z,72.68
2023-03-12T05:39:24.537Z,72.46
2023-03-12T05:40:26.747Z,72.69
2023-03-12T05:41:31.852Z,72.95
2023-03-12T05:42:34.102Z,72.58
2023-03-12T05:43:37.681Z,72.78
2023-03-12T05:44:40.016Z,72.63
2023-03-12T05:45:43.774Z,72.75
2023-03-12T05:46:46.135Z,72.79
2023-03-12T05:47:49.458Z,72.89
2023-03-12T05:48:53.293Z,72.48
2023-03-12T05:49:55.506Z,73.04
2023-03-12T05:51:00.606Z,72.81
2023-03-12T05:52:03.142Z,73.05
2023-03-12T05:53:06.569Z,72.86
2023-03-12T05:54:08.979Z,73.54
2023-03-12T05:55:12.530Z,73.53
2023-03-12T05:56:16.783Z,72.60
2023-03-12T05:57:20.487Z,72.47
2023-03-12T05:58:22.996Z,72.70
2023-03-12T05:59:26.724Z,72.67
2023-03-12T06:00:29.608Z,72.91
2023-03-12T06:01:33.892Z,73.00
2023-03-12T06:02:36.302Z,72.87
2023-03-12T06:03:40.007Z,73.10
2023-03-12T06:04:42.494Z,73.14
2023-03-12T06:05:48.497Z,73.43
2023-03-12T06:06:52.190Z,73.27
2023-03-12T06:07:55.978Z,73.05
2023-03-12T06:08:58.407Z,72.87
2023-03-12T06:10:01.913Z,73.15
2023-03-12T06:11:04.753Z,72.76
2023-03-12T06:12:08.380Z,72.53
2023-03-12T06:13:11.803Z,72.29
2023-03-12T06:14:15.525Z,72.16
2023-03-12T06:15:18.189Z,71.67
2023-03-12T06:16:23.801Z,71.92
2023-03-12T06:17:26.171Z,72.23
2023-03-12T06:18:29.587Z,72.55
2023-03-12T06:19:32.184Z,72.49
2023-03-12T06:20:35.799Z,72.20
2023-03-12T06:21:38.094Z,71.98
2023-03-12T06:22:42.991Z,72.14
2023-03-12T06:23:45.930Z,71.88
2023-03-12T06:24:49.372Z,71.84
2023-03-12T06:25:51.580Z,71.84
2023-03-12T06:26:55.002Z,71.84
2023-03-12T06:27:57.514Z,71.27
2023-03-12T06:29:00.877Z,71.96
2023-03-12T06:30:05.245Z,71.74
2023-03-12T06:31:08.711Z,71.66
2023-03-12T06:32:12.455Z,71.80
2023-03-12T06:33:14.798Z,71.72
2023-03-12T06:34:18.112Z,72.24
2023-03-12T06:35:20.467Z,72.38
2023-03-12T06:36:24.734Z,72.06
2023-03-12T06:37:27.440Z,71.88
2023-03-12T06:38:32.543Z,72.12
2023-03-12T06:39:34.727Z,72.12
2023-03-12T06:40:38.349Z,71.92
2023-03-12T06:41:41.906Z,72.09
2023-03-12T06:42:45.255Z,71.73
2023-03-12T06:43:48.111Z,71.59
2023-03-12T06:44:51.627Z,71.33
2023-03-12T06:45:55.914Z,71.03
2023-03-12T06:46:59.652Z,70.77
2023-03-12T06:48:01.924Z,71.15
2023-03-12T06:49:05.719Z,71.30
2023-03-12T06:50:08.871Z,71.19
2023-03-12T06:51:14.251Z,70.80
2023-03-12T06:52:16.684Z,71.00
2023-03-12T06:53:20.707Z,71.27
2023-03-12T06:54:25.681Z,71.84
2023-03-12T06:55:28.142Z,71.22
2023-03-12T06:56:32.140Z,71.08
2023-03-12T06:57:34.409Z,71.03
2023-03-12T06:58:38.162Z,70.87
2023-03-12T06:59:41.598Z,70.55
2023-03-12T07:00:44.117Z,70.83
2023-03-12T07:01:47.539Z,70.57
2023-03-12T07:02:49.955Z,70.50
2023-03-12T07:03:53.356Z,70.32
2023-03-12T07:04:55.727Z,70.91
2023-03-12T07:05:59.710Z,70.94
2023-03-12T07:07:03.120Z,70.54
2023-03-12T07:08:05.754Z,70.22
2023-03-12T07:09:09.302Z,70.15
2023-03-12T07:10:13.268Z,69.85
2023-03-12T07:11:17.711Z,70.12
2023-03-12T07:12:21.023Z,70.27
2023-03-12T07:13:23.479Z,70.16
2023-03-12T07:14:26.839Z,69.64
2023-03-12T07:15:30.366Z,69.08
2023-03-12T07:16:32.724Z,69.10
2023-03-12T07:17:36.515Z,69.23
2023-03-12T07:18:38.803Z,68.95
2023-03-12T07:19:42.312Z,69.44
2023-03-12T07:20:44.977Z,69.38
2023-03-12T07:21:48.289Z,69.46
2023-03-12T07:22:50.587Z,69.02
2023-03-12T07:23:54.393Z,68.70
2023-03-12T07:24:56.715Z,68.62
2023-03-12T07:26:01.675Z,68.54
2023-03-12T07:27:04.393Z,68.23
2023-03-12T07:28:08.283Z,67.85
2023-03-12T07:29:11.714Z,67.55
2023-03-12T07:30:14.348Z,67.28
2023-03-12T07:31:17.835Z,67.02
2023-03-12T07:32:20.346Z,66.87
2023-03-12T07:33:23.888Z,66.79
2023-03-12T07:34:28.117Z,65.54
2023-03-12T07:35:31.381Z,65.42
2023-03-12T07:36:35.000Z,65.20
2023-03-12T07:37:37.476Z,64.93
2023-03-12T07:38:41.253Z,64.68
2023-03-12T07:39:45.373Z,64.66
2023-03-12T07:40:51.453Z,64.05
2023-03-12T07:41:56.322Z,63.86
2023-03-12T07:42:58.807Z,63.95
2023-03-12T07:44:02.436Z,62.71
2023-03-12T07:45:05.542Z,60.89
2023-03-12T07:46:08.928Z,59.96
2023-03-12T07:47:23.084Z,58.84
2023-03-12T07:48:27.631Z,58.43
2023-03-12T07:49:30.022Z,58.37
2023-03-12T07:50:33.880Z,57.43
2023-03-12T07:51:37.434Z,56.62
2023-03-12T07:52:40.928Z,55.69
2023-03-12T07:53:44.527Z,55.70
2023-03-12T07:54:48.018Z,56.62
2023-03-12T07:55:50.492Z,56.06
2023-03-12T07:56:55.896Z,55.87
2023-03-12T07:57:59.251Z,55.01
2023-03-12T07:59:02.989Z,53.67
2023-03-12T08:00:07.507Z,53.51
2023-03-12T08:01:11.331Z,52.17
2023-03-12T08:02:14.201Z,54.42
2023-03-12T08:03:18.276Z,53.88
2023-03-12T08:04:21.020Z,52.46
2023-03-12T08:05:25.407Z,50.25
2023-03-12T08:06:28.182Z,49.68
2023-03-12T08:07:35.193Z,49.51
2023-03-12T08:08:38.494Z,49.66
2023-03-12T08:09:42.224Z,48.85
2023-03-12T08:10:45.694Z,49.58
2023-03-12T08:11:49.243Z,49.09
2023-03-12T08:12:53.106Z,50.17
2023-03-12T08:13:56.563Z,48.90
2023-03-12T08:14:59.934Z,47.65
2023-03-12T08:16:03.275Z,46.85
2023-03-12T08:17:05.739Z,47.58
2023-03-12T08:18:09.066Z,47.31
2023-03-12T08:19:11.440Z,48.54
2023-03-12T08:20:15.344Z,48.37
2023-03-12T08:21:17.639Z,47.88
2023-03-12T08:22:21.071Z,48.41
2023-03-12T08:23:25.054Z,49.05
2023-03-12T08:24:28.301Z,49.88
2023-03-12T08:25:30.610Z,48.93
2023-03-12T08:26:33.970Z,47.99
2023-03-12T08:27:36.754Z,47.57
2023-03-12T08:28:41.638Z,48.24
2023-03-12T08:29:43.852Z,47.35
2023-03-12T08:30:48.322Z,46.29
2023-03-12T08:32:04.104Z,46.19
2023-03-12T08:33:08.602Z,47.18
2023-03-12T08:34:13.014Z,47.79
2023-03-12T08:35:15.418Z,47.56
2023-03-12T08:36:20.655Z,47.35
2023-03-12T08:37:25.328Z,48.83
2023-03-12T08:38:28.792Z,49.48
2023-03-12T08:39:31.111Z,50.32
2023-03-12T08:40:34.411Z,50.36
2023-03-12T08:41:37.851Z,51.03
2023-03-12T08:42:40.184Z,51.90
2023-03-12T08:43:45.451Z,52.10
2023-03-12T08:44:48.791Z,52.77
2023-03-12T08:45:55.603Z,51.99
2023-03-12T08:46:57.940Z,51.05
2023-03-12T08:48:01.206Z,50.33
2023-03-12T08:49:03.428Z,51.07
2023-03-12T08:50:07.543Z,50.51
2023-03-12T08:51:10.886Z,51.42
2023-03-12T08:52:13.435Z,50.94
2023-03-12T08:53:16.813Z,51.42
2023-03-12T08:54:19.488Z,51.59
2023-03-12T08:55:22.930Z,51.87
2023-03-12T08:56:26.434Z,51.02
2023-03-12T08:57:29.156Z,51.04
2023-03-12T08:58:32.573Z,50.98
2023-03-12T08:59:36.471Z,51.68
2023-03-12T09:00:39.866Z,51.61
2023-03-12T09:01:43.804Z,50.96
2023-03-12T09:02:48.101Z,52.42
2023-03-12T09:03:54.169Z,52.13
2023-03-12T09:04:56.387Z,50.53
2023-03-12T09:06:09.807Z,50.74
2023-03-12T09:07:14.243Z,49.74
2023-03-12T09:08:17.420Z,49.84
2023-03-12T09:09:21.087Z,49.24
2023-03-12T09:10:24.057Z,48.99
2023-03-12T09:11:27.458Z,48.40
2023-03-12T09:12:30.691Z,49.62
2023-03-12T09:13:54.615Z,48.64
2023-03-12T09:15:03.455Z,49.28
2023-03-12T09:16:09.523Z,49.54
2023-03-12T09:17:12.867Z,50.79
2023-03-12T09:18:16.448Z,50.63
2023-03-12T09:19:20.699Z,50.76
2023-03-12T09:20:25.156Z,51.96
2023-03-12T09:21:28.526Z,51.92
2023-03-12T09:22:30.922Z,52.67
2023-03-12T09:23:34.644Z,52.42
2023-03-12T09:24:37.996Z,52.58
2023-03-12T09:25:40.684Z,53.59
2023-03-12T09:26:44.602Z,52.23
2023-03-12T09:27:48.002Z,52.42
2023-03-12T09:28:51.585Z,52.13
2023-03-12T09:29:59.994Z,51.22
2023-03-12T09:31:05.966Z,50.19
2023-03-12T09:32:09.590Z,50.70
2023-03-12T09:33:13.378Z,51.75
2023-03-12T09:34:16.837Z,52.75
2023-03-12T09:35:19.364Z,53.25
2023-03-12T09:36:22.944Z,53.78
2023-03-12T09:37:26.006Z,52.73
2023-03-12T09:38:32.009Z,54.11
2023-03-12T09:39:35.356Z,55.10
2023-03-12T09:40:40.157Z,56.13
2023-03-12T09:41:47.751Z,55.05
2023-03-12T09:42:54.941Z,53.96
2023-03-12T09:44:00.654Z,53.62
2023-03-12T09:45:07.106Z,53.54
2023-03-12T09:46:15.116Z,53.03
2023-03-12T09:47:26.832Z,53.01
2023-03-12T09:48:33.848Z,54.16
2023-03-12T09:49:41.882Z,54.87
2023-03-12T09:50:46.529Z,54.66
2023-03-12T09:51:55.368Z,53.71
2023-03-12T09:53:01.651Z,53.07
2023-03-12T09:54:08.263Z,53.83
2023-03-12T09:55:15.982Z,53.63
2023-03-12T09:56:20.036Z,54.51
2023-03-12T09:57:26.437Z,53.28
2023-03-12T09:58:32.385Z,53.33
2023-03-12T09:59:37.140Z,52.64
2023-03-12T10:00:40.594Z,52.24
2023-03-12T10:01:50.821Z,51.96
2023-03-12T10:03:11.210Z,52.64
2023-03-12T10:04:29.022Z,51.61
2023-03-12T10:05:38.451Z,51.29
2023-03-12T10:06:46.871Z,51.21
2023-03-12T10:07:55.488Z,50.96
2023-03-12T10:09:08.282Z,50.21
2023-03-12T10:10:34.495Z,50.75
2023-03-12T10:11:49.979Z,51.36
2023-03-12T10:13:09.986Z,51.06
2023-03-12T10:14:38.985Z,51.32
2023-03-12T10:15:53.953Z,51.70
2023-03-12T10:17:12.587Z,51.45
2023-03-12T10:18:28.599Z,52.46
2023-03-12T10:19:58.476Z,53.34
2023-03-12T10:21:13.236Z,52.80
2023-03-12T10:22:30.280Z,52.80
2023-03-12T10:23:49.981Z,52.19
2023-03-12T10:25:02.243Z,51.19
2023-03-12T10:26:10.321Z,50.81
2023-03-12T10:27:17.090Z,50.68
2023-03-12T10:28:22.291Z,50.61
2023-03-12T10:29:29.810Z,50.04
2023-03-12T10:30:33.450Z,50.27
2023-03-12T10:31:42.696Z,49.62
2023-03-12T10:32:51.972Z,48.90
2023-03-12T10:33:57.523Z,48.39
2023-03-12T10:35:04.765Z,47.00
2023-03-12T10:36:19.162Z,46.65
2023-03-12T10:37:26.422Z,44.91
2023-03-12T10:38:30.548Z,43.43
2023-03-12T10:39:33.792Z,43.25
2023-03-12T10:40:39.071Z,45.25
2023-03-12T10:41:44.096Z,45.95
2023-03-12T10:42:48.635Z,46.99
2023-03-12T10:43:51.178Z,48.24
2023-03-12T10:44:57.437Z,47.79
2023-03-12T10:46:07.010Z,48.11
2023-03-12T10:47:29.547Z,47.18
2023-03-12T10:48:34.236Z,46.06
2023-03-12T10:49:37.254Z,45.29
2023-03-12T10:50:41.810Z,45.18
2023-03-12T10:51:55.541Z,44.28
2023-03-12T10:53:15.919Z,43.74
2023-03-12T10:54:23.259Z,42.94
2023-03-12T10:55:29.585Z,43.60
2023-03-12T10:56:49.826Z,45.71
2023-03-12T10:57:54.105Z,47.68
2023-03-12T10:58:58.367Z,47.77
2023-03-12T11:00:12.060Z,46.43
2023-03-12T11:01:21.444Z,45.56
2023-03-12T11:02:32.220Z,45.21
2023-03-12T11:03:37.046Z,45.17
2023-03-12T11:04:39.278Z,45.23
2023-03-12T11:05:49.849Z,45.21
2023-03-12T11:07:06.543Z,46.27
2023-03-12T11:08:23.474Z,45.12
2023-03-12T11:09:25.762Z,45.63
2023-03-12T11:10:42.681Z,45.18
2023-03-12T11:11:47.662Z,45.26
2023-03-12T11:13:01.361Z,45.53
2023-03-12T11:14:07.980Z,44.55
2023-03-12T11:15:32.023Z,44.55
2023-03-12T11:16:35.622Z,44.21
2023-03-12T11:17:37.990Z,44.39
2023-03-12T11:18:56.461Z,46.50
2023-03-12T11:19:58.905Z,44.58
2023-03-12T11:21:18.455Z,44.68
2023-03-12T11:22:30.035Z,46.10
2023-03-12T11:23:33.745Z,45.67
2023-03-12T11:24:36.394Z,45.65
2023-03-12T11:25:39.703Z,45.92
2023-03-12T11:26:51.416Z,45.16
2023-03-12T11:27:55.893Z,45.65
2023-03-12T11:29:04.097Z,45.70
2023-03-12T11:30:11.934Z,46.80
2023-03-12T11:31:23.178Z,46.41
2023-03-12T11:32:32.549Z,46.02
2023-03-12T11:33:35.991Z,46.32
2023-03-12T11:34:41.760Z,46.54
2023-03-12T11:35:56.470Z,47.48
2023-03-12T11:37:12.645Z,48.37
2023-03-12T11:38:18.678Z,48.03
2023-03-12T11:39:29.987Z,47.60
2023-03-12T11:40:51.592Z,46.12
2023-03-12T11:42:23.829Z,46.64
2023-03-12T11:43:53.278Z,49.73
2023-03-12T11:45:05.681Z,51.35
2023-03-12T11:46:28.521Z,54.02
2023-03-12T11:47:47.622Z,55.33
2023-03-12T11:49:03.550Z,54.87
2023-03-12T11:50:20.223Z,54.17
2023-03-12T11:51:34.990Z,52.86
2023-03-12T11:52:57.995Z,52.84
2023-03-12T11:54:26.734Z,53.05
2023-03-12T11:55:41.890Z,53.15
2023-03-12T11:56:50.284Z,54.10
2023-03-12T11:58:08.707Z,54.25
2023-03-12T11:59:23.587Z,55.25
2023-03-12T12:00:35.000Z,55.57
2023-03-12T12:01:50.750Z,56.11
2023-03-12T12:03:48.265Z,55.69
2023-03-12T12:05:10.115Z,56.32
2023-03-12T12:06:24.291Z,55.43
2023-03-12T12:07:43.258Z,55.11
2023-03-12T12:09:00.490Z,56.35
2023-03-12T12:10:11.788Z,56.42
2023-03-12T12:11:21.097Z,56.87
2023-03-12T12:12:39.420Z,58.05
2023-03-12T12:13:53.834Z,57.59
2023-03-12T12:15:12.135Z,57.30
2023-03-12T12:16:31.722Z,57.28
2023-03-12T12:17:45.230Z,55.53
2023-03-12T12:19:04.531Z,54.97
2023-03-12T12:20:22.470Z,55.22
2023-03-12T12:21:46.315Z,55.67
2023-03-12T12:23:00.980Z,56.31
2023-03-12T12:24:18.368Z,55.72
2023-03-12T12:25:47.761Z,57.09
2023-03-12T12:26:59.512Z,57.60
2023-03-12T12:28:20.315Z,58.92
2023-03-12T12:29:36.598Z,58.69
2023-03-12T12:30:55.459Z,59.27
2023-03-12T12:32:01.125Z,59.46
2023-03-12T12:33:15.633Z,60.03
2023-03-12T12:34:32.670Z,59.22
2023-03-12T12:35:37.225Z,58.69
2023-03-12T12:36:46.209Z,58.96
2023-03-12T12:37:56.551Z,59.24
2023-03-12T12:39:06.127Z,60.22
2023-03-12T12:40:21.593Z,60.01
2023-03-12T12:41:27.030Z,59.77
2023-03-12T12:42:34.950Z,60.34
2023-03-12T12:43:40.656Z,61.05
2023-03-12T12:44:46.989Z,61.55
2023-03-12T12:45:53.530Z,61.88
2023-03-12T12:47:01.329Z,61.76
2023-03-12T12:48:08.877Z,62.33
2023-03-12T12:49:15.024Z,61.46
2023-03-12T12:50:22.440Z,61.22
2023-03-12T12:51:31.491Z,61.19
2023-03-12T12:52:35.483Z,61.47
2023-03-12T12:53:47.645Z,59.83
2023-03-12T12:54:59.255Z,60.07
2023-03-12T12:56:15.173Z,60.52
2023-03-12T12:57:25.276Z,59.46
2023-03-12T12:58:53.129Z,60.18
2023-03-12T13:00:10.893Z,60.14
2023-03-12T13:01:17.098Z,59.22
2023-03-12T13:02:23.079Z,59.58
2023-03-12T13:03:29.503Z,59.26
2023-03-12T13:04:35.143Z,59.49
2023-03-12T13:05:57.680Z,59.56
2023-03-12T13:07:27.995Z,58.32
2023-03-12T13:08:51.188Z,59.37
2023-03-12T13:09:56.033Z,61.43
2023-03-12T13:11:16.350Z,61.55
2023-03-12T13:12:26.467Z,61.69
2023-03-12T13:13:28.782Z,61.83
2023-03-12T13:14:41.453Z,61.89
2023-03-12T13:15:45.021Z,62.18
2023-03-12T13:16:49.591Z,61.83
2023-03-12T13:18:19.908Z,62.16
2023-03-12T13:19:26.247Z,62.49
2023-03-12T13:20:34.971Z,61.42
2023-03-12T13:21:40.426Z,62.00
2023-03-12T13:23:00.369Z,63.30
2023-03-12T13:24:18.431Z,64.08
2023-03-12T13:25:32.167Z,64.62
2023-03-12T13:26:50.239Z,64.13
2023-03-12T13:28:00.510Z,63.97
2023-03-12T13:29:22.497Z,64.01
2023-03-12T13:30:50.610Z,63.84
2023-03-12T13:31:53.173Z,64.72
2023-03-12T13:33:13.082Z,62.84
2023-03-12T13:34:32.129Z,62.26
2023-03-12T13:35:38.856Z,61.92
2023-03-12T13:36:44.242Z,62.97
2023-03-12T13:38:01.895Z,63.29
2023-03-12T13:39:29.551Z,64.30
2023-03-12T13:40:53.998Z,63.96
2023-03-12T13:41:58.279Z,63.61
2023-03-12T13:43:05.626Z,63.99
2023-03-12T13:44:33.124Z,64.13
2023-03-12T13:45:41.848Z,64.88
2023-03-12T13:46:47.691Z,65.21
2023-03-12T13:48:01.124Z,64.49
2023-03-12T13:49:13.761Z,63.74
2023-03-12T13:50:18.395Z,64.77
2023-03-12T13:51:23.958Z,65.08
2023-03-12T13:52:29.143Z,65.74
2023-03-12T13:53:36.246Z,65.59
2023-03-12T13:54:46.770Z,65.01
2023-03-12T13:56:01.616Z,64.86
2023-03-12T13:57:11.793Z,65.61
2023-03-12T13:58:21.638Z,65.82
2023-03-12T13:59:25.360Z,64.57
2023-03-12T14:00:33.164Z,64.30
2023-03-12T14:01:41.261Z,63.10
2023-03-12T14:02:49.678Z,63.44
2023-03-12T14:03:57.365Z,63.15
2023-03-12T14:05:07.553Z,61.63
2023-03-12T14:06:13.624Z,62.34
2023-03-12T14:07:34.772Z,63.69
2023-03-12T14:09:08.125Z,63.55
2023-03-12T14:10:22.830Z,63.68
2023-03-12T14:11:43.281Z,63.10
2023-03-12T14:12:56.348Z,64.10
2023-03-12T14:14:24.282Z,63.80
2023-03-12T14:15:38.838Z,64.28